Time;durP1;ratioP1;P1;durP2;ratioP2;P2;SDS_P1;SDS_P2;PMS_P1;PMS_P2;Temp;Humidity;BMP_temperature;BMP_pressure;BME280_temperature;BME280_humidity;BME280_pressure;Samples;Min_cycle;Max_cycle;Signal;HPM_P1;HPM_P2
2023/01/25 00:00:06;;;;;;;16.93;9.53;;;3.70;99.90;;;;;;4942985;29;20456;-51
2023/01/25 00:02:33;;;;;;;17.90;9.43;;;3.70;99.90;;;;;;4943437;29;20469;-58
2023/01/25 00:05:00;;;;;;;17.80;10.07;;;3.70;99.90;;;;;;4942826;29;20473;-54
2023/01/25 00:07:28;;;;;;;11.60;7.50;;;3.70;99.90;;;;;;4942057;29;20493;-56
2023/01/25 00:09:55;;;;;;;17.00;8.63;;;3.70;99.90;;;;;;4940532;29;20481;-54
2023/01/25 00:12:22;;;;;;;14.93;8.57;;;3.60;99.90;;;;;;4941138;29;20461;-54
2023/01/25 00:14:48;;;;;;;17.73;9.80;;;3.60;99.90;;;;;;4932563;29;20449;-57
2023/01/25 00:17:15;;;;;;;15.43;8.40;;;3.60;99.90;;;;;;4941541;29;20466;-57
2023/01/25 00:19:45;;;;;;;18.07;9.17;;;3.60;99.90;;;;;;4941226;29;20482;-56
2023/01/25 00:22:12;;;;;;;20.33;9.10;;;3.70;99.90;;;;;;4940634;29;20490;-50
2023/01/25 00:24:40;;;;;;;14.57;9.17;;;3.60;99.90;;;;;;4940968;29;20456;-53
2023/01/25 00:27:08;;;;;;;14.30;9.80;;;3.60;99.90;;;;;;4940730;29;20474;-52
2023/01/25 00:29:35;;;;;;;18.70;8.90;;;3.60;99.90;;;;;;4941758;29;20430;-52
2023/01/25 00:32:36;;;;;;;17.53;9.00;;;3.60;99.90;;;;;;4941517;29;20497;-53
2023/01/25 00:35:03;;;;;;;15.87;9.10;;;3.50;99.90;;;;;;4935252;29;20437;-57
2023/01/25 00:37:36;;;;;;;17.27;9.53;;;3.60;99.90;;;;;;4936739;29;20476;-53
2023/01/25 00:40:05;;;;;;;15.10;9.40;;;3.60;99.90;;;;;;4940786;29;20464;-56
2023/01/25 00:42:32;;;;;;;17.03;8.60;;;3.60;99.90;;;;;;4940476;29;20517;-58
2023/01/25 00:44:58;;;;;;;12.00;8.07;;;3.60;99.90;;;;;;4940913;29;20440;-54
2023/01/25 00:47:25;;;;;;;21.23;8.93;;;3.60;99.90;;;;;;4940985;29;20493;-48
2023/01/25 00:49:53;;;;;;;17.50;8.40;;;3.60;99.90;;;;;;4941402;29;20445;-55
2023/01/25 00:52:21;;;;;;;13.83;8.40;;;3.60;99.90;;;;;;4940303;29;20473;-55
2023/01/25 00:54:48;;;;;;;13.10;8.30;;;3.70;99.90;;;;;;5106934;23;20474;-54
2023/01/25 00:57:16;;;;;;;15.93;9.20;;;3.60;99.90;;;;;;4997662;28;20471;-55
2023/01/25 00:59:44;;;;;;;17.37;9.63;;;3.60;99.90;;;;;;4997535;28;20507;-49
2023/01/25 01:02:14;;;;;;;19.40;8.90;;;3.60;99.90;;;;;;4997549;28;20506;-49
2023/01/25 01:04:41;;;;;;;17.47;9.37;;;3.60;99.90;;;;;;4987101;28;20511;-55
2023/01/25 01:07:08;;;;;;;19.00;9.67;;;3.60;99.90;;;;;;4994791;28;20478;-55
2023/01/25 01:09:35;;;;;;;21.27;9.30;;;3.70;99.90;;;;;;4988386;28;20482;-52
2023/01/25 01:12:02;;;;;;;16.00;8.60;;;3.70;99.90;;;;;;4997739;28;20487;-51
2023/01/25 01:14:30;;;;;;;14.27;9.07;;;3.70;99.90;;;;;;4998078;28;20446;-52
2023/01/25 01:16:57;;;;;;;12.03;8.10;;;3.60;99.90;;;;;;4996817;28;20463;-57
2023/01/25 01:19:24;;;;;;;12.03;7.30;;;3.70;99.90;;;;;;4996643;28;20508;-53
2023/01/25 01:21:51;;;;;;;21.03;8.53;;;3.70;99.90;;;;;;4996815;28;20535;-53
2023/01/25 01:24:18;;;;;;;18.30;8.73;;;3.70;99.90;;;;;;4996976;28;20431;-54
2023/01/25 01:26:45;;;;;;;18.33;9.90;;;3.70;99.90;;;;;;4996541;28;20439;-49
2023/01/25 01:29:13;;;;;;;16.40;9.10;;;3.80;99.90;;;;;;4997045;28;20498;-61
2023/01/25 01:31:43;;;;;;;17.60;8.20;;;3.80;99.90;;;;;;4996775;28;20439;-52
2023/01/25 01:34:13;;;;;;;14.33;8.10;;;3.80;99.90;;;;;;4985519;28;20498;-52
2023/01/25 01:36:42;;;;;;;9.30;6.80;;;3.80;99.90;;;;;;4996998;28;20467;-56
2023/01/25 01:39:09;;;;;;;20.97;8.73;;;3.80;99.90;;;;;;4997533;28;20466;-55
2023/01/25 01:41:37;;;;;;;18.07;10.27;;;3.80;99.90;;;;;;4997073;28;20443;-53
2023/01/25 01:44:06;;;;;;;15.73;8.40;;;3.80;99.90;;;;;;4996460;28;20450;-48
2023/01/25 01:46:36;;;;;;;18.83;9.57;;;3.90;99.90;;;;;;4996894;28;20661;-54
2023/01/25 01:49:10;;;;;;;17.03;9.63;;;3.80;99.90;;;;;;4996254;28;20478;-54
2023/01/25 01:51:46;;;;;;;21.30;9.40;;;3.80;99.90;;;;;;4996224;28;20407;-53
2023/01/25 01:54:16;;;;;;;19.17;10.23;;;3.80;99.90;;;;;;4996465;28;20466;-54
2023/01/25 01:56:50;;;;;;;17.07;8.67;;;3.80;99.90;;;;;;4996369;28;20415;-53
2023/01/25 01:59:19;;;;;;;15.20;8.37;;;3.80;99.90;;;;;;4996791;28;20406;-51
2023/01/25 02:01:46;;;;;;;24.03;9.53;;;3.80;99.90;;;;;;4996691;28;20463;-57
2023/01/25 02:04:18;;;;;;;15.47;8.13;;;3.70;99.90;;;;;;4996600;28;20467;-53
2023/01/25 02:06:50;;;;;;;20.37;9.80;;;3.90;99.90;;;;;;4997268;28;20463;-54
2023/01/25 02:09:20;;;;;;;17.70;9.57;;;3.80;99.90;;;;;;4996603;28;20423;-53
2023/01/25 02:11:49;;;;;;;24.13;10.97;;;3.90;99.90;;;;;;4997649;28;20438;-56
2023/01/25 02:14:17;;;;;;;16.87;10.30;;;3.90;99.90;;;;;;4997236;28;20447;-53
2023/01/25 02:16:45;;;;;;;15.87;8.67;;;3.90;99.90;;;;;;4996885;28;20459;-55
2023/01/25 02:19:20;;;;;;;21.27;11.63;;;3.90;99.90;;;;;;4997103;28;20466;-54
2023/01/25 02:21:48;;;;;;;18.23;11.23;;;3.90;99.90;;;;;;4996728;28;20454;-58
2023/01/25 02:24:19;;;;;;;17.83;8.20;;;3.90;99.90;;;;;;4996307;28;20454;-48
2023/01/25 02:26:53;;;;;;;9.57;7.07;;;3.90;99.90;;;;;;4996437;28;20446;-54
2023/01/25 02:29:22;;;;;;;20.40;10.50;;;3.90;99.90;;;;;;4996176;28;20451;-54
2023/01/25 02:31:51;;;;;;;20.27;10.70;;;4.00;99.90;;;;;;4996229;28;20447;-54
2023/01/25 02:34:18;;;;;;;21.23;10.43;;;4.00;99.90;;;;;;4996375;28;20427;-58
2023/01/25 02:36:45;;;;;;;13.53;7.90;;;4.00;99.90;;;;;;4996012;28;20455;-49
2023/01/25 02:39:17;;;;;;;14.83;8.77;;;4.00;99.90;;;;;;4996487;28;20443;-55
2023/01/25 02:41:45;;;;;;;15.60;9.73;;;4.00;99.90;;;;;;4996405;28;20443;-53
2023/01/25 02:44:16;;;;;;;16.03;8.53;;;4.00;99.90;;;;;;4996508;28;20447;-49
2023/01/25 02:46:47;;;;;;;17.20;8.83;;;4.00;99.90;;;;;;4996312;28;20427;-52
2023/01/25 02:49:15;;;;;;;18.80;8.83;;;3.90;99.90;;;;;;4996101;28;20431;-53
2023/01/25 02:51:44;;;;;;;17.83;8.87;;;3.90;99.90;;;;;;4995719;28;20509;-53
2023/01/25 02:54:14;;;;;;;20.77;10.50;;;3.90;99.90;;;;;;4995420;28;20550;-53
2023/01/25 02:56:44;;;;;;;17.60;10.53;;;4.00;99.90;;;;;;4996353;28;20443;-51
2023/01/25 02:59:13;;;;;;;19.57;9.60;;;3.90;99.90;;;;;;4995969;28;20478;-49
2023/01/25 03:01:41;;;;;;;18.83;9.93;;;3.90;99.90;;;;;;4995621;28;20474;-54
2023/01/25 03:04:12;;;;;;;21.07;11.10;;;3.90;99.90;;;;;;4995728;28;20495;-56
2023/01/25 03:06:43;;;;;;;19.27;8.57;;;3.90;99.90;;;;;;4995637;28;20905;-66
2023/01/25 03:09:11;;;;;;;17.73;9.10;;;3.90;99.90;;;;;;4996287;28;20458;-56
2023/01/25 03:11:38;;;;;;;16.43;9.23;;;3.90;99.90;;;;;;4995548;28;20470;-55
2023/01/25 03:14:08;;;;;;;16.13;8.97;;;3.90;99.90;;;;;;4995421;28;20563;-56
2023/01/25 03:16:36;;;;;;;17.90;9.23;;;3.90;99.90;;;;;;4995800;28;20470;-53
2023/01/25 03:19:03;;;;;;;18.93;8.60;;;3.90;99.90;;;;;;4995254;28;20491;-53
2023/01/25 03:21:30;;;;;;;17.40;10.00;;;3.90;99.90;;;;;;4995715;28;20447;-58
2023/01/25 03:24:02;;;;;;;21.53;10.10;;;3.90;99.90;;;;;;4995421;28;20499;-52
2023/01/25 03:26:30;;;;;;;14.33;7.27;;;3.90;99.90;;;;;;4988123;28;20490;-55
2023/01/25 03:28:57;;;;;;;14.20;7.70;;;3.90;99.90;;;;;;4992082;28;20476;-52
2023/01/25 03:31:24;;;;;;;15.03;8.60;;;3.90;99.90;;;;;;4995373;28;20430;-53
2023/01/25 03:33:55;;;;;;;16.93;8.30;;;3.90;99.90;;;;;;4995754;28;20466;-48
2023/01/25 03:36:21;;;;;;;13.77;7.77;;;4.00;99.90;;;;;;4995297;28;20427;-52
2023/01/25 03:38:48;;;;;;;12.37;7.20;;;3.90;99.90;;;;;;4995477;28;20514;-58
2023/01/25 03:41:17;;;;;;;13.57;8.60;;;4.00;99.90;;;;;;4995374;28;20454;-52
2023/01/25 03:43:46;;;;;;;15.70;7.83;;;4.00;99.90;;;;;;4987899;28;20666;-55
2023/01/25 03:46:13;;;;;;;15.60;7.57;;;4.00;99.90;;;;;;4995714;28;20437;-58
2023/01/25 03:48:40;;;;;;;12.23;7.37;;;4.00;99.90;;;;;;4998592;28;20478;-55
2023/01/25 03:51:14;;;;;;;9.93;6.83;;;4.00;99.90;;;;;;4999505;28;20467;-62
2023/01/25 03:53:42;;;;;;;22.43;11.03;;;3.90;99.90;;;;;;4998587;28;20454;-54
2023/01/25 03:56:16;;;;;;;17.80;8.17;;;3.90;99.90;;;;;;4998784;28;20455;-54
2023/01/25 03:58:43;;;;;;;14.13;8.00;;;3.90;99.90;;;;;;4989267;28;20458;-55
2023/01/25 04:01:10;;;;;;;15.70;7.53;;;3.90;99.90;;;;;;4999663;28;20467;-50
2023/01/25 04:03:36;;;;;;;15.43;7.77;;;4.00;99.90;;;;;;4998477;28;20485;-54
2023/01/25 04:06:04;;;;;;;10.80;6.90;;;3.90;99.90;;;;;;4998351;28;20471;-53
2023/01/25 04:08:33;;;;;;;14.03;6.87;;;4.00;99.90;;;;;;4998793;28;20443;-49
2023/01/25 04:11:02;;;;;;;10.60;6.70;;;3.90;99.90;;;;;;4998545;28;20419;-49
2023/01/25 04:13:30;;;;;;;12.80;8.00;;;3.90;99.90;;;;;;4998039;28;20438;-54
2023/01/25 04:15:57;;;;;;;16.27;7.13;;;3.90;99.90;;;;;;4998720;28;20435;-62
2023/01/25 04:18:24;;;;;;;11.97;7.30;;;3.90;99.90;;;;;;4998946;28;20573;-58
2023/01/25 04:20:59;;;;;;;12.47;7.63;;;3.90;99.90;;;;;;4998820;28;20453;-57
2023/01/25 04:23:27;;;;;;;13.60;7.27;;;4.00;99.90;;;;;;4987022;28;20494;-51
2023/01/25 04:25:56;;;;;;;13.83;6.87;;;3.90;99.90;;;;;;4997644;28;20443;-50
2023/01/25 04:28:23;;;;;;;10.23;6.70;;;3.90;99.90;;;;;;4998029;28;20920;-54
2023/01/25 04:30:50;;;;;;;8.67;6.47;;;3.90;99.90;;;;;;4998837;28;20486;-55
2023/01/25 04:33:17;;;;;;;11.43;7.40;;;3.90;99.90;;;;;;4998306;28;20462;-51
2023/01/25 04:35:44;;;;;;;12.37;7.03;;;3.90;99.90;;;;;;4997965;28;20443;-50
2023/01/25 04:38:12;;;;;;;11.00;7.17;;;3.80;99.90;;;;;;4998957;28;20454;-51
2023/01/25 04:40:39;;;;;;;13.20;6.93;;;3.80;99.90;;;;;;4998346;28;20451;-54
2023/01/25 04:43:07;;;;;;;14.20;6.93;;;3.90;99.90;;;;;;4998143;28;20501;-52
2023/01/25 04:45:35;;;;;;;11.10;6.80;;;3.90;99.90;;;;;;4998547;28;20478;-52
2023/01/25 04:48:08;;;;;;;12.03;7.53;;;3.90;99.90;;;;;;4998626;28;20458;-51
2023/01/25 04:50:39;;;;;;;12.97;7.20;;;3.90;99.90;;;;;;4997851;28;20479;-60
2023/01/25 04:53:07;;;;;;;11.17;6.63;;;3.80;99.90;;;;;;4998062;28;20427;-55
2023/01/25 04:55:34;;;;;;;15.10;7.43;;;3.80;99.90;;;;;;4997709;28;20493;-58
2023/01/25 04:58:02;;;;;;;12.43;6.33;;;3.80;99.90;;;;;;4997428;28;20442;-48
2023/01/25 05:00:31;;;;;;;13.47;6.30;;;3.80;99.90;;;;;;4997208;28;20459;-51
2023/01/25 05:02:58;;;;;;;18.73;7.80;;;3.80;99.90;;;;;;4997347;28;20559;-52
2023/01/25 05:05:25;;;;;;;14.47;7.50;;;3.90;99.90;;;;;;4997708;28;20474;-54
2023/01/25 05:07:51;;;;;;;18.17;9.23;;;3.90;99.90;;;;;;4986857;28;20466;-53
2023/01/25 05:10:18;;;;;;;12.33;6.47;;;3.90;99.90;;;;;;4997427;28;20502;-56
2023/01/25 05:12:45;;;;;;;16.83;8.47;;;3.80;99.90;;;;;;4997637;28;20443;-58
2023/01/25 05:15:14;;;;;;;29.23;14.43;;;3.80;99.90;;;;;;4997593;28;20542;-58
2023/01/25 05:17:43;;;;;;;15.77;8.33;;;3.80;99.90;;;;;;4998058;28;20450;-55
2023/01/25 05:20:13;;;;;;;16.93;7.83;;;3.80;99.90;;;;;;4998144;28;20490;-58
2023/01/25 05:22:42;;;;;;;21.67;8.10;;;3.80;99.90;;;;;;4997178;28;20498;-56
2023/01/25 05:26:59;;;;;;;15.27;7.87;;;3.80;99.90;;;;;;4997404;28;20462;-55
2023/01/25 05:27:55;;;;;;;12.30;6.37;;;3.70;99.90;;;;;;4997249;28;20477;-55
2023/01/25 05:30:23;;;;;;;13.90;5.17;;;3.70;99.90;;;;;;4997239;28;20467;-65
2023/01/25 05:32:51;;;;;;;14.50;7.80;;;3.70;99.90;;;;;;4997227;28;20474;-58
2023/01/25 05:35:18;;;;;;;12.60;7.13;;;3.70;99.90;;;;;;4992773;28;20502;-57
2023/01/25 05:37:45;;;;;;;15.70;7.37;;;3.70;99.90;;;;;;4982833;28;20916;-54
2023/01/25 05:40:13;;;;;;;32.87;8.53;;;3.70;99.90;;;;;;4992940;28;20543;-52
2023/01/25 05:42:41;;;;;;;12.67;6.87;;;3.70;99.90;;;;;;4977921;28;20443;-50
2023/01/25 05:45:09;;;;;;;13.37;6.40;;;3.70;99.90;;;;;;4984327;28;20500;-52
2023/01/25 05:47:36;;;;;;;15.20;7.03;;;3.70;99.90;;;;;;4995426;28;20423;-53
2023/01/25 05:50:05;;;;;;;15.17;6.60;;;3.70;99.90;;;;;;5005868;28;20478;-49
2023/01/25 05:52:35;;;;;;;9.70;6.33;;;3.70;99.90;;;;;;5006394;28;20446;-52
2023/01/25 05:55:01;;;;;;;8.50;5.23;;;3.80;99.90;;;;;;5003768;28;20501;-53
2023/01/25 05:57:28;;;;;;;9.97;5.20;;;3.80;99.90;;;;;;4978600;28;20440;-53
2023/01/25 05:59:55;;;;;;;8.57;5.43;;;3.70;99.90;;;;;;5007418;28;20462;-54
2023/01/25 06:02:22;;;;;;;8.30;4.93;;;3.80;99.90;;;;;;5016026;28;20434;-54
2023/01/25 06:04:49;;;;;;;10.87;5.47;;;3.80;99.90;;;;;;5016084;28;20496;-50
2023/01/25 06:07:17;;;;;;;14.30;5.63;;;3.80;99.90;;;;;;5015299;28;20418;-52
2023/01/25 06:09:44;;;;;;;12.40;5.70;;;3.80;99.90;;;;;;5015852;28;20442;-54
2023/01/25 06:12:11;;;;;;;11.13;5.17;;;3.80;99.90;;;;;;5015829;28;20462;-60
2023/01/25 06:14:38;;;;;;;15.27;6.10;;;3.70;99.90;;;;;;5015909;28;20442;-60
2023/01/25 06:17:05;;;;;;;9.80;6.00;;;3.70;99.90;;;;;;5016190;28;20442;-54
2023/01/25 06:19:32;;;;;;;7.53;4.80;;;3.70;99.90;;;;;;5016228;28;20454;-55
2023/01/25 06:22:02;;;;;;;16.40;7.30;;;3.70;99.90;;;;;;5015780;28;20450;-48
2023/01/25 06:24:30;;;;;;;10.60;5.03;;;3.70;99.90;;;;;;5015319;28;20458;-52
2023/01/25 06:26:57;;;;;;;9.23;5.50;;;3.70;99.90;;;;;;5015910;28;20470;-52
2023/01/25 06:29:24;;;;;;;15.00;5.50;;;3.60;99.90;;;;;;5016143;28;20489;-52
2023/01/25 06:31:50;;;;;;;10.50;6.23;;;3.60;99.90;;;;;;5005597;28;20525;-55
2023/01/25 06:34:19;;;;;;;12.43;5.90;;;3.70;99.90;;;;;;5015797;28;20497;-53
2023/01/25 06:36:47;;;;;;;14.47;8.00;;;3.70;99.90;;;;;;5015362;28;20438;-55
2023/01/25 06:39:14;;;;;;;14.97;8.00;;;3.70;99.90;;;;;;5015354;28;20442;-56
2023/01/25 06:41:43;;;;;;;9.73;5.47;;;3.70;99.90;;;;;;5014872;28;20490;-50
2023/01/25 06:44:10;;;;;;;13.93;5.77;;;3.60;99.90;;;;;;5015831;28;20483;-52
2023/01/25 06:46:36;;;;;;;18.03;8.50;;;3.60;99.90;;;;;;5014809;28;20502;-53
2023/01/25 06:49:03;;;;;;;7.27;6.00;;;3.60;99.90;;;;;;5005495;28;20442;-56
2023/01/25 06:51:30;;;;;;;11.43;7.37;;;3.60;99.90;;;;;;5013378;28;20457;-61
2023/01/25 06:54:04;;;;;;;11.73;6.37;;;3.60;99.90;;;;;;5008008;28;20462;-59
2023/01/25 06:56:32;;;;;;;16.20;8.47;;;3.60;99.90;;;;;;5015308;28;20508;-50
2023/01/25 06:59:00;;;;;;;13.43;7.33;;;3.60;99.90;;;;;;5015974;28;20446;-53
2023/01/25 07:01:29;;;;;;;12.77;8.27;;;3.60;99.90;;;;;;5015972;28;20549;-52
2023/01/25 07:03:57;;;;;;;12.10;6.57;;;3.60;99.90;;;;;;5015410;28;20549;-53
2023/01/25 07:06:25;;;;;;;16.23;7.53;;;3.60;99.90;;;;;;5015410;28;20473;-51
2023/01/25 07:08:52;;;;;;;14.50;7.33;;;3.50;99.90;;;;;;5014120;28;20470;-58
2023/01/25 07:11:19;;;;;;;13.90;8.37;;;3.50;99.90;;;;;;5005257;28;20527;-50
2023/01/25 07:13:47;;;;;;;17.50;7.77;;;3.50;99.90;;;;;;5014910;28;20449;-54
2023/01/25 07:16:18;;;;;;;19.67;9.40;;;3.50;99.90;;;;;;5009144;28;20538;-55
2023/01/25 07:18:45;;;;;;;17.17;8.50;;;3.50;99.90;;;;;;5014824;28;20430;-55
2023/01/25 07:21:16;;;;;;;20.10;10.37;;;3.50;99.90;;;;;;5019376;28;20458;-61
2023/01/25 07:23:43;;;;;;;14.07;8.07;;;3.50;99.90;;;;;;5019860;28;20563;-55
2023/01/25 07:26:16;;;;;;;18.60;9.23;;;3.50;99.90;;;;;;5010633;28;20482;-54
2023/01/25 07:28:43;;;;;;;15.60;7.33;;;3.50;99.90;;;;;;5000230;28;20450;-53
2023/01/25 07:31:10;;;;;;;16.83;8.90;;;3.50;99.90;;;;;;5008353;28;20465;-56
2023/01/25 07:33:41;;;;;;;25.70;10.60;;;3.50;99.90;;;;;;5019045;28;20450;-53
2023/01/25 07:36:10;;;;;;;20.40;10.13;;;3.40;99.90;;;;;;5012456;28;20474;-52
2023/01/25 07:38:37;;;;;;;21.83;9.30;;;3.40;99.90;;;;;;5012351;28;20433;-60
2023/01/25 07:41:05;;;;;;;24.30;12.93;;;3.40;99.90;;;;;;5013792;28;20449;-54
2023/01/25 07:43:32;;;;;;;25.23;11.83;;;3.50;99.90;;;;;;5011737;28;20469;-59
2023/01/25 07:46:03;;;;;;;28.20;13.47;;;3.40;99.90;;;;;;5019199;28;20450;-50
2023/01/25 07:48:31;;;;;;;20.67;10.40;;;3.40;99.90;;;;;;5018912;28;20469;-56
2023/01/25 07:51:21;;;;;;;16.97;8.97;;;3.30;99.90;;;;;;5011515;28;20439;-55
2023/01/25 07:53:56;;;;;;;26.73;9.43;;;3.20;99.90;;;;;;4998995;28;20544;-53
2023/01/25 07:56:25;;;;;;;23.33;10.33;;;3.30;99.90;;;;;;4998266;28;20459;-51
2023/01/25 07:58:53;;;;;;;26.87;10.70;;;3.30;99.90;;;;;;4999160;28;20427;-67
2023/01/25 08:01:21;;;;;;;25.97;11.50;;;3.30;99.90;;;;;;4998940;28;20438;-52
2023/01/25 08:03:49;;;;;;;31.70;10.37;;;3.30;99.90;;;;;;5000286;28;20473;-61
2023/01/25 08:06:26;;;;;;;22.23;11.43;;;3.30;99.90;;;;;;5000262;28;20450;-51
2023/01/25 08:08:56;;;;;;;17.87;10.40;;;3.30;99.90;;;;;;4996337;28;20436;-57
2023/01/25 08:11:25;;;;;;;19.07;9.27;;;3.30;99.90;;;;;;4997242;28;20434;-54
2023/01/25 08:13:52;;;;;;;17.73;10.10;;;3.30;99.90;;;;;;5015366;28;20457;-53
2023/01/25 08:16:20;;;;;;;21.30;9.43;;;3.30;99.90;;;;;;5008447;28;20508;-52
2023/01/25 08:18:48;;;;;;;21.10;11.10;;;3.20;99.90;;;;;;5009691;28;20462;-49
2023/01/25 08:21:19;;;;;;;21.07;11.27;;;3.30;99.90;;;;;;5005585;28;20430;-54
2023/01/25 08:23:46;;;;;;;25.07;13.30;;;3.30;99.90;;;;;;5009083;28;20486;-53
2023/01/25 08:26:15;;;;;;;24.17;9.10;;;3.30;99.90;;;;;;5001896;28;20450;-54
2023/01/25 08:28:45;;;;;;;20.23;9.30;;;3.30;99.90;;;;;;5001470;28;20439;-50
2023/01/25 08:31:13;;;;;;;17.10;9.60;;;3.30;99.90;;;;;;5003657;28;20862;-57
2023/01/25 08:33:43;;;;;;;19.57;8.70;;;3.30;99.90;;;;;;5006761;28;20455;-54
2023/01/25 08:36:11;;;;;;;25.00;9.63;;;3.30;99.90;;;;;;5007706;28;20456;-51
2023/01/25 08:38:40;;;;;;;20.00;7.13;;;3.30;99.90;;;;;;5017381;28;20450;-56
2023/01/25 08:41:09;;;;;;;21.77;11.13;;;3.30;99.90;;;;;;5017484;28;20474;-51
2023/01/25 08:43:35;;;;;;;21.33;9.50;;;3.30;99.90;;;;;;5017419;28;20458;-54
2023/01/25 08:46:03;;;;;;;25.87;11.00;;;3.30;99.90;;;;;;5016955;28;20481;-53
2023/01/25 08:48:30;;;;;;;18.10;9.40;;;3.30;99.90;;;;;;5017467;28;20442;-53
2023/01/25 08:50:59;;;;;;;14.13;8.53;;;3.30;99.90;;;;;;5017803;28;20458;-54
2023/01/25 08:53:27;;;;;;;19.90;9.20;;;3.30;99.90;;;;;;5017252;28;20453;-64
2023/01/25 08:56:02;;;;;;;18.60;8.40;;;3.20;99.90;;;;;;5016322;28;20481;-56
2023/01/25 08:58:30;;;;;;;14.87;7.27;;;3.20;99.90;;;;;;5016561;28;20473;-55
2023/01/25 09:01:08;;;;;;;15.43;8.17;;;3.20;99.90;;;;;;5016408;28;20453;-49
2023/01/25 09:03:36;;;;;;;11.23;6.07;;;3.20;99.90;;;;;;5017452;28;20480;-49
2023/01/25 09:06:03;;;;;;;18.60;5.90;;;3.20;99.90;;;;;;5017404;28;20434;-58
2023/01/25 09:08:30;;;;;;;18.07;9.77;;;3.10;99.90;;;;;;5010604;28;20506;-58
2023/01/25 09:11:02;;;;;;;11.53;6.57;;;3.00;99.90;;;;;;5016340;28;20437;-57
2023/01/25 09:13:29;;;;;;;18.17;7.57;;;3.00;99.90;;;;;;5017537;28;20486;-55
2023/01/25 09:16:00;;;;;;;21.80;10.50;;;3.00;99.90;;;;;;5016990;28;20466;-53
2023/01/25 09:18:28;;;;;;;21.00;9.77;;;3.10;99.90;;;;;;5016771;28;20441;-51
2023/01/25 09:20:56;;;;;;;17.57;9.77;;;3.10;99.90;;;;;;5017908;28;20491;-52
2023/01/25 09:23:23;;;;;;;19.40;8.20;;;3.10;99.90;;;;;;5018062;28;20445;-54
2023/01/25 09:25:56;;;;;;;22.50;11.17;;;3.10;99.90;;;;;;5017804;28;20486;-57
2023/01/25 09:28:24;;;;;;;15.93;9.20;;;3.20;99.90;;;;;;5018000;28;20445;-58
2023/01/25 09:30:55;;;;;;;20.70;10.07;;;3.20;99.90;;;;;;5018007;28;20469;-53
2023/01/25 09:33:25;;;;;;;14.77;7.93;;;3.10;99.90;;;;;;5018598;28;20438;-52
2023/01/25 09:35:52;;;;;;;14.87;7.47;;;3.10;99.90;;;;;;5018350;28;20426;-51
2023/01/25 09:38:19;;;;;;;18.03;8.77;;;3.10;99.90;;;;;;5017723;28;20438;-52
2023/01/25 09:41:04;;;;;;;15.00;8.53;;;3.00;99.90;;;;;;5017614;28;20453;-55
2023/01/25 09:43:49;;;;;;;20.83;8.50;;;3.00;99.90;;;;;;5017558;28;20810;-55
2023/01/25 09:46:25;;;;;;;22.90;8.77;;;2.90;99.90;;;;;;5018051;28;20425;-54
2023/01/25 09:49:00;;;;;;;17.07;8.60;;;2.90;99.90;;;;;;5017908;28;20461;-56
2023/01/25 09:51:39;;;;;;;17.87;7.67;;;2.90;99.90;;;;;;5017804;28;20433;-53
2023/01/25 09:54:09;;;;;;;21.23;8.33;;;2.90;99.90;;;;;;5010296;28;20533;-59
2023/01/25 09:56:38;;;;;;;12.53;7.90;;;2.90;99.90;;;;;;5016624;28;20569;-48
2023/01/25 09:59:11;;;;;;;19.50;8.60;;;2.90;99.90;;;;;;5017338;28;20457;-52
2023/01/25 10:01:47;;;;;;;17.30;9.27;;;2.90;99.90;;;;;;5017393;28;20430;-55
2023/01/25 10:04:18;;;;;;;30.80;14.13;;;2.90;99.90;;;;;;5012423;28;20890;-56
2023/01/25 10:06:50;;;;;;;21.47;9.73;;;3.00;99.90;;;;;;5015193;28;20426;-52
2023/01/25 10:09:30;;;;;;;21.20;8.60;;;3.00;99.90;;;;;;5017699;28;20418;-50
2023/01/25 10:11:59;;;;;;;24.50;10.30;;;3.00;99.90;;;;;;5017537;28;20435;-46
2023/01/25 10:14:32;;;;;;;14.70;8.63;;;3.10;99.90;;;;;;5014083;28;20895;-54
2023/01/25 10:17:08;;;;;;;14.87;7.90;;;3.10;99.90;;;;;;5009326;28;20438;-49
2023/01/25 10:19:50;;;;;;;16.13;8.60;;;3.10;99.90;;;;;;5017088;28;20430;-49
2023/01/25 10:22:21;;;;;;;13.53;7.87;;;3.10;99.90;;;;;;5017416;28;20474;-49
2023/01/25 10:25:17;;;;;;;16.50;8.03;;;3.10;99.90;;;;;;5014806;28;20473;-53
2023/01/25 10:27:50;;;;;;;20.00;8.60;;;3.10;99.90;;;;;;5009067;28;20485;-50
2023/01/25 10:30:26;;;;;;;18.33;9.80;;;3.00;99.90;;;;;;5017198;28;20437;-50
2023/01/25 10:32:57;;;;;;;12.03;7.10;;;3.00;99.90;;;;;;5016725;28;20453;-52
2023/01/25 10:35:29;;;;;;;22.60;7.70;;;3.00;99.90;;;;;;5017026;28;20446;-55
2023/01/25 10:37:59;;;;;;;18.47;7.87;;;3.00;99.90;;;;;;5017111;28;20445;-52
2023/01/25 10:40:31;;;;;;;20.03;9.50;;;2.90;99.90;;;;;;5016657;28;20435;-56
2023/01/25 10:43:02;;;;;;;16.07;7.07;;;2.90;99.90;;;;;;5016546;28;20417;-53
2023/01/25 10:45:30;;;;;;;14.87;7.80;;;3.00;99.90;;;;;;5016550;28;20493;-51
2023/01/25 10:48:03;;;;;;;20.33;8.30;;;3.00;99.90;;;;;;5016642;28;20466;-54
2023/01/25 10:50:49;;;;;;;17.37;8.77;;;3.00;99.90;;;;;;5016732;28;20423;-58
2023/01/25 10:53:25;;;;;;;19.13;8.63;;;3.10;99.90;;;;;;5018890;28;20454;-54
2023/01/25 10:56:11;;;;;;;23.97;9.33;;;3.10;99.90;;;;;;5022983;28;20441;-53
2023/01/25 10:58:39;;;;;;;24.10;10.50;;;3.10;99.90;;;;;;5018951;28;20446;-57
2023/01/25 11:01:12;;;;;;;19.93;10.00;;;3.00;99.90;;;;;;5022934;28;20461;-51
2023/01/25 11:03:43;;;;;;;18.13;8.87;;;3.00;99.90;;;;;;5023284;28;20422;-56
2023/01/25 11:06:12;;;;;;;24.67;10.70;;;3.00;99.90;;;;;;5022484;28;20465;-50
2023/01/25 11:08:41;;;;;;;17.43;11.00;;;2.90;99.90;;;;;;5021784;28;20465;-52
2023/01/25 11:11:25;;;;;;;17.43;9.87;;;3.00;99.90;;;;;;5023023;28;20453;-56
2023/01/25 11:13:54;;;;;;;18.07;9.20;;;3.00;99.90;;;;;;5023306;28;20481;-50
2023/01/25 11:16:32;;;;;;;21.23;9.97;;;3.10;99.90;;;;;;5023194;28;20457;-54
2023/01/25 11:19:01;;;;;;;16.20;9.87;;;3.10;99.90;;;;;;5021878;28;20461;-55
2023/01/25 11:21:30;;;;;;;17.97;9.43;;;3.10;99.90;;;;;;5021416;28;20445;-51
2023/01/25 11:24:15;;;;;;;23.70;10.43;;;3.10;99.90;;;;;;5021450;28;20484;-57
2023/01/25 11:26:42;;;;;;;25.97;10.77;;;3.00;99.90;;;;;;5022190;28;20465;-56
2023/01/25 11:29:15;;;;;;;24.47;11.47;;;3.00;99.90;;;;;;5022169;28;20507;-53
2023/01/25 11:31:46;;;;;;;29.37;15.10;;;3.00;99.90;;;;;;5023087;28;20442;-55
2023/01/25 11:34:15;;;;;;;22.13;12.13;;;3.10;99.90;;;;;;5023455;28;20438;-52
2023/01/25 11:37:02;;;;;;;22.00;13.07;;;3.10;99.90;;;;;;5022615;28;20480;-49
2023/01/25 11:39:43;;;;;;;28.03;13.77;;;3.10;99.90;;;;;;5021873;28;20445;-53
2023/01/25 11:42:27;;;;;;;30.63;12.00;;;3.20;99.90;;;;;;5021744;28;20472;-55
2023/01/25 11:45:21;;;;;;;37.80;10.90;;;3.20;99.90;;;;;;5021967;28;20497;-54
2023/01/25 11:48:05;;;;;;;26.10;10.63;;;3.20;99.90;;;;;;5022189;28;20469;-56
2023/01/25 11:50:37;;;;;;;19.80;11.37;;;3.20;99.90;;;;;;5017553;28;20484;-54
2023/01/25 11:53:29;;;;;;;21.47;11.20;;;3.10;99.90;;;;;;5022372;28;20462;-50
2023/01/25 11:56:03;;;;;;;30.60;14.23;;;3.10;99.90;;;;;;5022173;28;20446;-54
2023/01/25 11:58:53;;;;;;;39.47;14.60;;;3.10;99.90;;;;;;5022199;28;20488;-57
2023/01/25 12:01:27;;;;;;;24.80;14.57;;;3.10;99.90;;;;;;5022344;28;20426;-52
2023/01/25 12:04:20;;;;;;;36.07;12.37;;;3.10;99.90;;;;;;5022413;28;20457;-53
2023/01/25 12:06:58;;;;;;;23.83;13.20;;;3.10;99.90;;;;;;5018173;28;20472;-53
2023/01/25 12:09:54;;;;;;;22.37;12.10;;;3.00;99.90;;;;;;5019290;28;20448;-57
2023/01/25 12:12:31;;;;;;;21.07;12.40;;;3.00;99.90;;;;;;4995636;28;20518;-55
2023/01/25 12:15:23;;;;;;;20.60;8.93;;;3.00;99.90;;;;;;5018927;28;20438;-53
2023/01/25 12:18:13;;;;;;;23.73;11.90;;;3.00;99.90;;;;;;5018895;28;20469;-54
2023/01/25 12:21:00;;;;;;;27.70;10.97;;;3.00;99.90;;;;;;5019101;28;20427;-56
2023/01/25 12:23:36;;;;;;;21.40;9.77;;;2.90;99.90;;;;;;5018632;28;20497;-54
2023/01/25 12:26:25;;;;;;;20.73;11.23;;;2.90;99.90;;;;;;5018393;28;20470;-56
2023/01/25 12:29:01;;;;;;;20.13;10.57;;;2.90;99.90;;;;;;5018479;28;20522;-56
2023/01/25 12:31:36;;;;;;;28.83;11.80;;;2.90;99.90;;;;;;5019050;28;20445;-57
2023/01/25 12:34:09;;;;;;;20.10;8.30;;;2.90;99.90;;;;;;5018441;28;20570;-54
2023/01/25 12:36:42;;;;;;;21.30;9.40;;;2.90;99.90;;;;;;5018426;28;20426;-59
2023/01/25 12:39:13;;;;;;;19.57;9.63;;;2.90;99.90;;;;;;5019500;28;20466;-54
2023/01/25 12:41:47;;;;;;;20.47;10.17;;;2.90;99.90;;;;;;5019400;28;20422;-49
2023/01/25 12:44:19;;;;;;;32.47;10.73;;;2.80;99.90;;;;;;5018541;28;20445;-50
2023/01/25 12:46:54;;;;;;;23.13;10.50;;;2.80;99.90;;;;;;5018653;28;20509;-48
2023/01/25 12:49:27;;;;;;;20.27;11.33;;;2.80;99.90;;;;;;5018725;28;20475;-49
2023/01/25 12:51:58;;;;;;;20.20;10.43;;;2.80;99.90;;;;;;5018906;28;20761;-50
2023/01/25 12:54:33;;;;;;;22.03;11.23;;;2.80;99.90;;;;;;5018580;28;20466;-52
2023/01/25 12:57:13;;;;;;;24.93;12.27;;;2.80;99.90;;;;;;5017673;28;20430;-50
2023/01/25 12:59:48;;;;;;;25.43;13.17;;;2.80;99.90;;;;;;5017763;28;20470;-54
2023/01/25 13:02:36;;;;;;;24.23;10.53;;;2.80;99.90;;;;;;5017890;28;20426;-53